sensor_id;sensor_type;location;lat;lon;timestamp;temperature;humidity
3792;DHT22;1911;53.768;11.474;2023-06-26T00:01:50;20.50;99.90
3792;DHT22;1911;53.768;11.474;2023-06-26T00:04:16;20.50;99.90
3792;DHT22;1911;53.768;11.474;2023-06-26T00:06:42;20.40;99.90
3792;DHT22;1911;53.768;11.474;2023-06-26T00:09:07;20.30;99.90
3792;DHT22;1911;53.768;11.474;2023-06-26T00:11:33;20.30;99.90
3792;DHT22;1911;53.768;11.474;2023-06-26T00:14:00;20.30;99.90
3792;DHT22;1911;53.768;11.474;2023-06-26T00:16:26;20.30;99.90
3792;DHT22;1911;53.768;11.474;2023-06-26T00:18:53;20.30;99.90
3792;DHT22;1911;53.768;11.474;2023-06-26T00:21:18;20.30;99.90
3792;DHT22;1911;53.768;11.474;2023-06-26T00:23:44;20.30;99.90
3792;DHT22;1911;53.768;11.474;2023-06-26T00:26:11;20.30;99.90
3792;DHT22;1911;53.768;11.474;2023-06-26T00:28:36;20.30;99.90
3792;DHT22;1911;53.768;11.474;2023-06-26T00:31:02;20.30;99.90
3792;DHT22;1911;53.768;11.474;2023-06-26T00:33:28;20.30;99.90
3792;DHT22;1911;53.768;11.474;2023-06-26T00:35:53;20.40;99.90
3792;DHT22;1911;53.768;11.474;2023-06-26T00:38:19;20.30;99.90
3792;DHT22;1911;53.768;11.474;2023-06-26T00:40:44;20.30;99.90
3792;DHT22;1911;53.768;11.474;2023-06-26T00:43:10;20.30;99.90
3792;DHT22;1911;53.768;11.474;2023-06-26T00:45:38;20.20;99.90
3792;DHT22;1911;53.768;11.474;2023-06-26T00:48:03;20.20;99.90
3792;DHT22;1911;53.768;11.474;2023-06-26T00:50:29;20.20;99.90
3792;DHT22;1911;53.768;11.474;2023-06-26T00:52:55;20.10;99.90
3792;DHT22;1911;53.768;11.474;2023-06-26T00:55:26;20.10;99.90
3792;DHT22;1911;53.768;11.474;2023-06-26T00:57:55;20.00;99.90
3792;DHT22;1911;53.768;11.474;2023-06-26T01:00:21;20.00;99.90
3792;DHT22;1911;53.768;11.474;2023-06-26T01:02:46;19.90;99.90
3792;DHT22;1911;53.768;11.474;2023-06-26T01:05:13;19.80;99.90
3792;DHT22;1911;53.768;11.474;2023-06-26T01:07:47;19.80;99.90
3792;DHT22;1911;53.768;11.474;2023-06-26T01:10:13;19.70;99.90
3792;DHT22;1911;53.768;11.474;2023-06-26T01:12:39;19.60;99.90
3792;DHT22;1911;53.768;11.474;2023-06-26T01:15:05;19.60;99.90
3792;DHT22;1911;53.768;11.474;2023-06-26T01:17:31;19.50;99.90
3792;DHT22;1911;53.768;11.474;2023-06-26T01:20:02;19.50;99.90
3792;DHT22;1911;53.768;11.474;2023-06-26T01:22:47;19.40;99.90
3792;DHT22;1911;53.768;11.474;2023-06-26T01:25:41;19.40;99.90
3792;DHT22;1911;53.768;11.474;2023-06-26T01:28:13;19.30;99.90
3792;DHT22;1911;53.768;11.474;2023-06-26T01:30:42;19.30;99.90
3792;DHT22;1911;53.768;11.474;2023-06-26T01:33:08;19.30;99.90
3792;DHT22;1911;53.768;11.474;2023-06-26T01:35:34;19.30;99.90
3792;DHT22;1911;53.768;11.474;2023-06-26T01:38:20;19.40;99.90
3792;DHT22;1911;53.768;11.474;2023-06-26T01:40:46;19.40;99.90
3792;DHT22;1911;53.768;11.474;2023-06-26T01:45:55;19.40;99.90
3792;DHT22;1911;53.768;11.474;2023-06-26T01:48:24;19.40;99.90
3792;DHT22;1911;53.768;11.474;2023-06-26T01:50:52;19.40;99.90
3792;DHT22;1911;53.768;11.474;2023-06-26T01:53:21;19.50;99.90
3792;DHT22;1911;53.768;11.474;2023-06-26T01:56:01;19.60;99.90
3792;DHT22;1911;53.768;11.474;2023-06-26T01:58:31;19.60;99.90
3792;DHT22;1911;53.768;11.474;2023-06-26T02:00:57;19.60;99.90
3792;DHT22;1911;53.768;11.474;2023-06-26T02:03:23;19.70;99.90
3792;DHT22;1911;53.768;11.474;2023-06-26T02:05:50;19.70;99.90
3792;DHT22;1911;53.768;11.474;2023-06-26T02:08:16;19.80;99.90
3792;DHT22;1911;53.768;11.474;2023-06-26T02:10:42;19.80;99.90
3792;DHT22;1911;53.768;11.474;2023-06-26T02:13:07;19.80;99.90
3792;DHT22;1911;53.768;11.474;2023-06-26T02:15:33;19.70;99.90
3792;DHT22;1911;53.768;11.474;2023-06-26T02:17:58;19.80;99.90
3792;DHT22;1911;53.768;11.474;2023-06-26T02:20:24;19.80;99.90
3792;DHT22;1911;53.768;11.474;2023-06-26T02:22:49;19.80;99.90
3792;DHT22;1911;53.768;11.474;2023-06-26T02:25:15;19.80;99.90
3792;DHT22;1911;53.768;11.474;2023-06-26T02:27:41;19.80;99.90
3792;DHT22;1911;53.768;11.474;2023-06-26T02:30:08;19.70;99.90
3792;DHT22;1911;53.768;11.474;2023-06-26T02:32:34;19.70;99.90
3792;DHT22;1911;53.768;11.474;2023-06-26T02:35:00;19.70;99.90
3792;DHT22;1911;53.768;11.474;2023-06-26T02:37:26;19.70;99.90
3792;DHT22;1911;53.768;11.474;2023-06-26T02:39:51;19.70;99.90
3792;DHT22;1911;53.768;11.474;2023-06-26T02:42:17;19.70;99.90
3792;DHT22;1911;53.768;11.474;2023-06-26T02:44:42;19.70;99.90
3792;DHT22;1911;53.768;11.474;2023-06-26T02:47:08;19.70;99.90
3792;DHT22;1911;53.768;11.474;2023-06-26T02:49:33;19.70;99.90
3792;DHT22;1911;53.768;11.474;2023-06-26T02:51:59;19.70;99.90
3792;DHT22;1911;53.768;11.474;2023-06-26T02:54:25;19.70;99.90
3792;DHT22;1911;53.768;11.474;2023-06-26T02:56:50;19.70;99.90
3792;DHT22;1911;53.768;11.474;2023-06-26T02:59:16;19.70;99.90
3792;DHT22;1911;53.768;11.474;2023-06-26T03:01:44;19.70;99.90
3792;DHT22;1911;53.768;11.474;2023-06-26T03:04:10;19.70;99.90
3792;DHT22;1911;53.768;11.474;2023-06-26T03:06:36;19.70;99.90
3792;DHT22;1911;53.768;11.474;2023-06-26T03:09:01;19.70;99.90
3792;DHT22;1911;53.768;11.474;2023-06-26T03:11:28;19.70;99.90
3792;DHT22;1911;53.768;11.474;2023-06-26T03:13:54;19.70;99.90
3792;DHT22;1911;53.768;11.474;2023-06-26T03:16:19;19.70;99.90
3792;DHT22;1911;53.768;11.474;2023-06-26T03:18:45;19.70;99.90
3792;DHT22;1911;53.768;11.474;2023-06-26T03:21:11;19.70;99.90
3792;DHT22;1911;53.768;11.474;2023-06-26T03:23:36;19.80;99.90
3792;DHT22;1911;53.768;11.474;2023-06-26T03:26:02;19.80;99.90
3792;DHT22;1911;53.768;11.474;2023-06-26T03:28:28;19.90;99.90
3792;DHT22;1911;53.768;11.474;2023-06-26T03:30:53;19.90;99.90
3792;DHT22;1911;53.768;11.474;2023-06-26T03:33:19;19.90;99.90
3792;DHT22;1911;53.768;11.474;2023-06-26T03:35:44;20.00;99.90
3792;DHT22;1911;53.768;11.474;2023-06-26T03:38:10;20.00;99.90
3792;DHT22;1911;53.768;11.474;2023-06-26T03:40:36;19.90;99.90
3792;DHT22;1911;53.768;11.474;2023-06-26T03:43:01;20.00;99.90
3792;DHT22;1911;53.768;11.474;2023-06-26T03:45:28;19.90;99.90
3792;DHT22;1911;53.768;11.474;2023-06-26T03:47:53;20.00;99.90
3792;DHT22;1911;53.768;11.474;2023-06-26T03:50:19;19.90;99.90
3792;DHT22;1911;53.768;11.474;2023-06-26T03:52:45;19.90;99.90
3792;DHT22;1911;53.768;11.474;2023-06-26T03:55:11;20.00;99.90
3792;DHT22;1911;53.768;11.474;2023-06-26T03:57:37;20.00;99.90
3792;DHT22;1911;53.768;11.474;2023-06-26T04:00:03;20.00;99.90
3792;DHT22;1911;53.768;11.474;2023-06-26T04:02:36;20.00;99.90
3792;DHT22;1911;53.768;11.474;2023-06-26T04:05:02;20.00;99.90
3792;DHT22;1911;53.768;11.474;2023-06-26T04:07:29;20.00;99.90
3792;DHT22;1911;53.768;11.474;2023-06-26T04:09:55;20.00;99.90
3792;DHT22;1911;53.768;11.474;2023-06-26T04:12:21;20.10;99.90
3792;DHT22;1911;53.768;11.474;2023-06-26T04:14:46;20.20;99.90
3792;DHT22;1911;53.768;11.474;2023-06-26T04:17:12;20.20;99.90
3792;DHT22;1911;53.768;11.474;2023-06-26T04:19:38;20.30;99.90
3792;DHT22;1911;53.768;11.474;2023-06-26T04:22:03;20.30;99.90
3792;DHT22;1911;53.768;11.474;2023-06-26T04:24:29;20.30;99.90
3792;DHT22;1911;53.768;11.474;2023-06-26T04:26:55;20.40;99.90
3792;DHT22;1911;53.768;11.474;2023-06-26T04:29:23;20.40;99.90
3792;DHT22;1911;53.768;11.474;2023-06-26T04:31:51;20.50;99.90
3792;DHT22;1911;53.768;11.474;2023-06-26T04:34:17;20.60;99.90
3792;DHT22;1911;53.768;11.474;2023-06-26T04:36:42;20.60;99.90
3792;DHT22;1911;53.768;11.474;2023-06-26T04:39:11;20.70;99.90
3792;DHT22;1911;53.768;11.474;2023-06-26T04:41:37;20.70;99.90
3792;DHT22;1911;53.768;11.474;2023-06-26T04:44:03;20.80;99.90
3792;DHT22;1911;53.768;11.474;2023-06-26T04:46:28;20.90;99.90
3792;DHT22;1911;53.768;11.474;2023-06-26T04:48:54;21.00;99.90
3792;DHT22;1911;53.768;11.474;2023-06-26T04:51:19;21.00;99.90
3792;DHT22;1911;53.768;11.474;2023-06-26T04:53:46;21.00;99.90
3792;DHT22;1911;53.768;11.474;2023-06-26T04:56:11;21.10;99.90
3792;DHT22;1911;53.768;11.474;2023-06-26T04:58:37;21.20;99.90
3792;DHT22;1911;53.768;11.474;2023-06-26T05:01:03;21.30;99.90
3792;DHT22;1911;53.768;11.474;2023-06-26T05:03:32;21.30;99.90
3792;DHT22;1911;53.768;11.474;2023-06-26T05:05:57;21.30;99.90
3792;DHT22;1911;53.768;11.474;2023-06-26T05:08:24;21.40;99.90
3792;DHT22;1911;53.768;11.474;2023-06-26T05:10:51;21.50;99.90
3792;DHT22;1911;53.768;11.474;2023-06-26T05:13:18;21.60;99.90
3792;DHT22;1911;53.768;11.474;2023-06-26T05:15:45;21.70;99.90
3792;DHT22;1911;53.768;11.474;2023-06-26T05:18:11;21.70;99.90
3792;DHT22;1911;53.768;11.474;2023-06-26T05:20:38;21.90;99.90
3792;DHT22;1911;53.768;11.474;2023-06-26T05:23:04;22.00;99.90
3792;DHT22;1911;53.768;11.474;2023-06-26T05:25:31;22.30;99.90
3792;DHT22;1911;53.768;11.474;2023-06-26T05:27:58;22.50;99.90
3792;DHT22;1911;53.768;11.474;2023-06-26T05:30:25;23.20;99.90
3792;DHT22;1911;53.768;11.474;2023-06-26T05:32:52;24.20;99.90
3792;DHT22;1911;53.768;11.474;2023-06-26T05:35:19;25.50;29.60
3792;DHT22;1911;53.768;11.474;2023-06-26T05:37:45;26.80;1.00
3792;DHT22;1911;53.768;11.474;2023-06-26T05:40:12;27.80;1.00
3792;DHT22;1911;53.768;11.474;2023-06-26T05:42:38;28.30;1.00
3792;DHT22;1911;53.768;11.474;2023-06-26T05:45:04;29.00;99.90
3792;DHT22;1911;53.768;11.474;2023-06-26T05:47:30;29.60;99.90
3792;DHT22;1911;53.768;11.474;2023-06-26T05:49:56;30.10;99.90
3792;DHT22;1911;53.768;11.474;2023-06-26T05:52:22;30.60;99.90
3792;DHT22;1911;53.768;11.474;2023-06-26T05:54:47;30.90;99.90
3792;DHT22;1911;53.768;11.474;2023-06-26T05:57:13;31.00;99.90
3792;DHT22;1911;53.768;11.474;2023-06-26T05:59:40;31.00;69.20
3792;DHT22;1911;53.768;11.474;2023-06-26T06:02:08;31.10;71.70
3792;DHT22;1911;53.768;11.474;2023-06-26T06:04:33;31.30;82.30
3792;DHT22;1911;53.768;11.474;2023-06-26T06:07:00;31.50;29.90
3792;DHT22;1911;53.768;11.474;2023-06-26T06:09:26;31.40;17.90
3792;DHT22;1911;53.768;11.474;2023-06-26T06:11:51;31.60;1.00
3792;DHT22;1911;53.768;11.474;2023-06-26T06:14:17;32.10;1.00
3792;DHT22;1911;53.768;11.474;2023-06-26T06:16:42;32.30;1.00
3792;DHT22;1911;53.768;11.474;2023-06-26T06:19:08;32.40;1.00
3792;DHT22;1911;53.768;11.474;2023-06-26T06:21:36;32.60;1.00
3792;DHT22;1911;53.768;11.474;2023-06-26T06:24:02;32.70;1.00
3792;DHT22;1911;53.768;11.474;2023-06-26T06:26:28;32.60;1.00
3792;DHT22;1911;53.768;11.474;2023-06-26T06:28:54;32.80;1.00
3792;DHT22;1911;53.768;11.474;2023-06-26T06:31:19;33.10;1.00
3792;DHT22;1911;53.768;11.474;2023-06-26T06:33:45;33.20;1.00
3792;DHT22;1911;53.768;11.474;2023-06-26T06:36:10;33.10;1.00
3792;DHT22;1911;53.768;11.474;2023-06-26T06:38:36;33.40;1.00
3792;DHT22;1911;53.768;11.474;2023-06-26T06:41:02;33.40;1.00
3792;DHT22;1911;53.768;11.474;2023-06-26T06:43:28;33.80;1.00
3792;DHT22;1911;53.768;11.474;2023-06-26T06:45:53;33.60;1.00
3792;DHT22;1911;53.768;11.474;2023-06-26T06:48:19;33.50;1.00
3792;DHT22;1911;53.768;11.474;2023-06-26T06:50:44;33.40;1.00
3792;DHT22;1911;53.768;11.474;2023-06-26T06:53:10;33.40;1.00
3792;DHT22;1911;53.768;11.474;2023-06-26T06:55:36;33.50;1.00
3792;DHT22;1911;53.768;11.474;2023-06-26T06:58:01;33.60;1.00
3792;DHT22;1911;53.768;11.474;2023-06-26T07:00:27;33.50;1.00
3792;DHT22;1911;53.768;11.474;2023-06-26T07:02:53;33.80;1.00
3792;DHT22;1911;53.768;11.474;2023-06-26T07:05:19;34.00;1.00
3792;DHT22;1911;53.768;11.474;2023-06-26T07:07:45;34.20;1.00
3792;DHT22;1911;53.768;11.474;2023-06-26T07:10:12;34.10;1.00
3792;DHT22;1911;53.768;11.474;2023-06-26T07:12:38;34.10;1.00
3792;DHT22;1911;53.768;11.474;2023-06-26T07:15:05;34.00;1.00
3792;DHT22;1911;53.768;11.474;2023-06-26T07:17:32;34.20;1.00
3792;DHT22;1911;53.768;11.474;2023-06-26T07:19:59;34.30;1.00
3792;DHT22;1911;53.768;11.474;2023-06-26T07:22:26;34.40;1.00
3792;DHT22;1911;53.768;11.474;2023-06-26T07:24:52;34.40;1.00
3792;DHT22;1911;53.768;11.474;2023-06-26T07:27:18;34.70;1.00
3792;DHT22;1911;53.768;11.474;2023-06-26T07:29:44;34.70;1.00
3792;DHT22;1911;53.768;11.474;2023-06-26T07:32:10;34.70;1.00
3792;DHT22;1911;53.768;11.474;2023-06-26T07:34:36;34.90;1.00
3792;DHT22;1911;53.768;11.474;2023-06-26T07:37:02;35.20;1.00
3792;DHT22;1911;53.768;11.474;2023-06-26T07:39:28;35.10;1.00
3792;DHT22;1911;53.768;11.474;2023-06-26T07:41:53;35.30;1.00
3792;DHT22;1911;53.768;11.474;2023-06-26T07:44:20;35.70;1.00
3792;DHT22;1911;53.768;11.474;2023-06-26T07:46:45;35.90;1.00
3792;DHT22;1911;53.768;11.474;2023-06-26T07:49:11;36.20;1.00
3792;DHT22;1911;53.768;11.474;2023-06-26T07:51:37;36.60;1.00
3792;DHT22;1911;53.768;11.474;2023-06-26T07:54:03;36.70;1.00
3792;DHT22;1911;53.768;11.474;2023-06-26T07:56:29;36.80;1.00
3792;DHT22;1911;53.768;11.474;2023-06-26T07:58:59;37.20;1.00
3792;DHT22;1911;53.768;11.474;2023-06-26T08:01:25;37.40;1.00
3792;DHT22;1911;53.768;11.474;2023-06-26T08:03:51;37.40;1.00
3792;DHT22;1911;53.768;11.474;2023-06-26T08:06:17;37.30;1.00
3792;DHT22;1911;53.768;11.474;2023-06-26T08:08:42;36.60;1.00
3792;DHT22;1911;53.768;11.474;2023-06-26T08:11:08;36.00;1.00
3792;DHT22;1911;53.768;11.474;2023-06-26T08:13:34;35.50;1.00
3792;DHT22;1911;53.768;11.474;2023-06-26T08:15:59;35.20;1.00
3792;DHT22;1911;53.768;11.474;2023-06-26T08:18:25;35.40;1.00
3792;DHT22;1911;53.768;11.474;2023-06-26T08:20:51;35.60;1.00
3792;DHT22;1911;53.768;11.474;2023-06-26T08:23:16;35.50;1.00
3792;DHT22;1911;53.768;11.474;2023-06-26T08:25:42;35.10;1.00
3792;DHT22;1911;53.768;11.474;2023-06-26T08:28:08;34.60;1.00
3792;DHT22;1911;53.768;11.474;2023-06-26T08:30:34;34.40;1.00
3792;DHT22;1911;53.768;11.474;2023-06-26T08:33:00;34.10;1.00
3792;DHT22;1911;53.768;11.474;2023-06-26T08:35:25;34.20;1.00
3792;DHT22;1911;53.768;11.474;2023-06-26T08:37:51;34.10;1.00
3792;DHT22;1911;53.768;11.474;2023-06-26T08:40:17;34.20;1.00
3792;DHT22;1911;53.768;11.474;2023-06-26T08:42:46;34.10;1.00
3792;DHT22;1911;53.768;11.474;2023-06-26T08:45:12;33.80;1.00
3792;DHT22;1911;53.768;11.474;2023-06-26T08:47:38;33.60;1.00
3792;DHT22;1911;53.768;11.474;2023-06-26T08:50:08;33.00;1.00
3792;DHT22;1911;53.768;11.474;2023-06-26T08:53:01;32.60;1.00
3792;DHT22;1911;53.768;11.474;2023-06-26T08:55:31;32.30;1.00
3792;DHT22;1911;53.768;11.474;2023-06-26T08:57:59;32.30;1.00
3792;DHT22;1911;53.768;11.474;2023-06-26T09:00:25;31.90;1.00
3792;DHT22;1911;53.768;11.474;2023-06-26T09:02:50;31.70;1.00
3792;DHT22;1911;53.768;11.474;2023-06-26T09:05:16;31.30;1.00
3792;DHT22;1911;53.768;11.474;2023-06-26T09:07:42;31.00;1.00
3792;DHT22;1911;53.768;11.474;2023-06-26T09:10:08;31.00;1.00
3792;DHT22;1911;53.768;11.474;2023-06-26T09:12:35;30.80;1.00
3792;DHT22;1911;53.768;11.474;2023-06-26T09:15:02;30.60;1.00
3792;DHT22;1911;53.768;11.474;2023-06-26T09:17:38;30.40;1.00
3792;DHT22;1911;53.768;11.474;2023-06-26T09:20:04;30.30;1.00
3792;DHT22;1911;53.768;11.474;2023-06-26T09:22:33;30.20;1.00
3792;DHT22;1911;53.768;11.474;2023-06-26T09:24:59;30.10;1.00
3792;DHT22;1911;53.768;11.474;2023-06-26T09:27:25;30.00;1.00
3792;DHT22;1911;53.768;11.474;2023-06-26T09:29:51;29.90;1.00
3792;DHT22;1911;53.768;11.474;2023-06-26T09:32:16;29.90;1.00
3792;DHT22;1911;53.768;11.474;2023-06-26T09:34:43;29.60;1.00
3792;DHT22;1911;53.768;11.474;2023-06-26T09:37:12;29.60;1.00
3792;DHT22;1911;53.768;11.474;2023-06-26T09:39:37;29.70;1.00
3792;DHT22;1911;53.768;11.474;2023-06-26T09:42:05;29.50;1.00
3792;DHT22;1911;53.768;11.474;2023-06-26T09:44:33;29.50;1.00
3792;DHT22;1911;53.768;11.474;2023-06-26T09:46:58;29.50;1.00
3792;DHT22;1911;53.768;11.474;2023-06-26T09:49:24;29.60;1.00
3792;DHT22;1911;53.768;11.474;2023-06-26T09:51:51;29.70;1.00
3792;DHT22;1911;53.768;11.474;2023-06-26T09:54:17;29.70;1.00
3792;DHT22;1911;53.768;11.474;2023-06-26T09:56:44;29.80;1.00
3792;DHT22;1911;53.768;11.474;2023-06-26T09:59:09;29.90;1.00
3792;DHT22;1911;53.768;11.474;2023-06-26T10:01:41;29.80;1.00
3792;DHT22;1911;53.768;11.474;2023-06-26T10:04:07;29.80;1.00
3792;DHT22;1911;53.768;11.474;2023-06-26T10:06:45;29.90;1.00
3792;DHT22;1911;53.768;11.474;2023-06-26T10:09:13;30.00;1.00
3792;DHT22;1911;53.768;11.474;2023-06-26T10:12:07;29.90;1.00
3792;DHT22;1911;53.768;11.474;2023-06-26T10:14:37;29.80;1.00
3792;DHT22;1911;53.768;11.474;2023-06-26T10:17:10;29.80;1.00
3792;DHT22;1911;53.768;11.474;2023-06-26T10:19:38;29.90;1.00
3792;DHT22;1911;53.768;11.474;2023-06-26T10:22:05;29.90;1.00
3792;DHT22;1911;53.768;11.474;2023-06-26T10:24:34;29.60;1.00
3792;DHT22;1911;53.768;11.474;2023-06-26T10:27:17;29.30;1.00
3792;DHT22;1911;53.768;11.474;2023-06-26T10:29:45;29.00;1.00
3792;DHT22;1911;53.768;11.474;2023-06-26T10:32:13;27.30;1.00
3792;DHT22;1911;53.768;11.474;2023-06-26T10:34:40;25.20;1.00
3792;DHT22;1911;53.768;11.474;2023-06-26T10:37:05;24.40;1.00
3792;DHT22;1911;53.768;11.474;2023-06-26T10:39:50;24.60;1.00
3792;DHT22;1911;53.768;11.474;2023-06-26T10:42:17;25.30;99.90
3792;DHT22;1911;53.768;11.474;2023-06-26T10:44:44;25.70;2.90
3792;DHT22;1911;53.768;11.474;2023-06-26T10:47:11;26.60;1.00
3792;DHT22;1911;53.768;11.474;2023-06-26T10:49:38;27.30;99.90
3792;DHT22;1911;53.768;11.474;2023-06-26T10:52:08;27.90;99.90
3792;DHT22;1911;53.768;11.474;2023-06-26T10:54:34;28.20;99.80
3792;DHT22;1911;53.768;11.474;2023-06-26T10:57:01;28.40;80.40
3792;DHT22;1911;53.768;11.474;2023-06-26T10:59:29;28.70;82.50
3792;DHT22;1911;53.768;11.474;2023-06-26T11:02:01;28.60;96.60
3792;DHT22;1911;53.768;11.474;2023-06-26T11:04:47;28.40;99.90
3792;DHT22;1911;53.768;11.474;2023-06-26T11:12:46;28.30;1.00
3792;DHT22;1911;53.768;11.474;2023-06-26T11:15:15;28.70;1.00
3792;DHT22;1911;53.768;11.474;2023-06-26T11:17:44;28.90;1.00
3792;DHT22;1911;53.768;11.474;2023-06-26T11:20:14;29.00;1.00
3792;DHT22;1911;53.768;11.474;2023-06-26T11:22:42;29.10;1.00
3792;DHT22;1911;53.768;11.474;2023-06-26T11:25:09;29.10;1.00
3792;DHT22;1911;53.768;11.474;2023-06-26T11:27:41;28.90;1.00
3792;DHT22;1911;53.768;11.474;2023-06-26T11:30:09;28.90;1.00
3792;DHT22;1911;53.768;11.474;2023-06-26T11:32:36;28.80;1.00
3792;DHT22;1911;53.768;11.474;2023-06-26T11:35:02;28.50;1.00
3792;DHT22;1911;53.768;11.474;2023-06-26T11:37:30;27.80;1.00
3792;DHT22;1911;53.768;11.474;2023-06-26T11:39:56;26.90;1.00
3792;DHT22;1911;53.768;11.474;2023-06-26T11:42:22;26.20;99.90
3792;DHT22;1911;53.768;11.474;2023-06-26T11:44:49;25.40;1.00
3792;DHT22;1911;53.768;11.474;2023-06-26T11:47:15;24.40;99.90
3792;DHT22;1911;53.768;11.474;2023-06-26T11:49:46;23.60;99.90
3792;DHT22;1911;53.768;11.474;2023-06-26T11:52:12;23.00;99.90
3792;DHT22;1911;53.768;11.474;2023-06-26T11:54:38;22.60;99.90
3792;DHT22;1911;53.768;11.474;2023-06-26T11:57:04;22.50;99.90
3792;DHT22;1911;53.768;11.474;2023-06-26T11:59:50;22.20;99.90
3792;DHT22;1911;53.768;11.474;2023-06-26T12:02:16;22.00;99.90
3792;DHT22;1911;53.768;11.474;2023-06-26T12:04:43;21.80;99.90
3792;DHT22;1911;53.768;11.474;2023-06-26T12:07:09;21.70;99.90
3792;DHT22;1911;53.768;11.474;2023-06-26T12:09:40;21.70;99.90
3792;DHT22;1911;53.768;11.474;2023-06-26T12:12:07;21.60;99.90
3792;DHT22;1911;53.768;11.474;2023-06-26T12:14:33;21.50;99.90
3792;DHT22;1911;53.768;11.474;2023-06-26T12:17:07;21.50;99.90
3792;DHT22;1911;53.768;11.474;2023-06-26T12:19:37;21.40;99.90
3792;DHT22;1911;53.768;11.474;2023-06-26T12:22:07;21.40;99.90
3792;DHT22;1911;53.768;11.474;2023-06-26T12:24:33;21.40;99.90
3792;DHT22;1911;53.768;11.474;2023-06-26T12:26:58;21.30;99.90
3792;DHT22;1911;53.768;11.474;2023-06-26T12:29:34;21.20;99.90
3792;DHT22;1911;53.768;11.474;2023-06-26T12:32:00;21.10;99.90
3792;DHT22;1911;53.768;11.474;2023-06-26T12:34:34;21.00;99.90
3792;DHT22;1911;53.768;11.474;2023-06-26T12:37:10;20.90;99.90
3792;DHT22;1911;53.768;11.474;2023-06-26T12:39:55;20.80;99.90
3792;DHT22;1911;53.768;11.474;2023-06-26T12:42:25;20.80;99.90
3792;DHT22;1911;53.768;11.474;2023-06-26T12:44:52;20.80;99.90
3792;DHT22;1911;53.768;11.474;2023-06-26T12:47:24;20.60;99.90
3792;DHT22;1911;53.768;11.474;2023-06-26T12:49:51;20.50;99.90
3792;DHT22;1911;53.768;11.474;2023-06-26T12:52:17;20.40;99.90
3792;DHT22;1911;53.768;11.474;2023-06-26T12:54:44;20.40;99.90
3792;DHT22;1911;53.768;11.474;2023-06-26T12:57:12;20.40;99.90
3792;DHT22;1911;53.768;11.474;2023-06-26T12:59:39;20.40;99.90
3792;DHT22;1911;53.768;11.474;2023-06-26T13:02:05;20.40;99.90
3792;DHT22;1911;53.768;11.474;2023-06-26T13:04:32;20.50;99.90
3792;DHT22;1911;53.768;11.474;2023-06-26T13:06:58;20.60;99.90
3792;DHT22;1911;53.768;11.474;2023-06-26T13:09:24;20.70;99.90
3792;DHT22;1911;53.768;11.474;2023-06-26T13:11:54;21.10;99.90
3792;DHT22;1911;53.768;11.474;2023-06-26T13:14:20;21.40;99.90
3792;DHT22;1911;53.768;11.474;2023-06-26T13:16:47;21.80;99.90
3792;DHT22;1911;53.768;11.474;2023-06-26T13:19:12;21.70;99.90
3792;DHT22;1911;53.768;11.474;2023-06-26T13:21:38;21.60;99.90
3792;DHT22;1911;53.768;11.474;2023-06-26T13:24:04;21.80;99.90
3792;DHT22;1911;53.768;11.474;2023-06-26T13:26:30;21.90;99.90
3792;DHT22;1911;53.768;11.474;2023-06-26T13:28:57;22.20;99.90
3792;DHT22;1911;53.768;11.474;2023-06-26T13:31:23;22.40;99.90
3792;DHT22;1911;53.768;11.474;2023-06-26T13:33:48;22.60;99.90
3792;DHT22;1911;53.768;11.474;2023-06-26T13:36:15;22.80;99.90
3792;DHT22;1911;53.768;11.474;2023-06-26T13:38:41;22.70;99.90
3792;DHT22;1911;53.768;11.474;2023-06-26T13:41:07;22.80;99.90
3792;DHT22;1911;53.768;11.474;2023-06-26T13:43:33;22.90;99.90
3792;DHT22;1911;53.768;11.474;2023-06-26T13:46:00;22.90;99.90
3792;DHT22;1911;53.768;11.474;2023-06-26T13:48:26;22.70;99.90
3792;DHT22;1911;53.768;11.474;2023-06-26T13:51:09;22.70;99.90
3792;DHT22;1911;53.768;11.474;2023-06-26T13:53:37;22.60;99.90
3792;DHT22;1911;53.768;11.474;2023-06-26T13:56:03;22.50;99.90
3792;DHT22;1911;53.768;11.474;2023-06-26T13:58:29;22.40;99.90
3792;DHT22;1911;53.768;11.474;2023-06-26T14:00:55;22.30;99.90
3792;DHT22;1911;53.768;11.474;2023-06-26T14:03:21;22.30;1.00
3792;DHT22;1911;53.768;11.474;2023-06-26T14:05:46;22.30;15.60
3792;DHT22;1911;53.768;11.474;2023-06-26T14:08:13;22.30;1.00
3792;DHT22;1911;53.768;11.474;2023-06-26T14:10:44;22.40;1.00
3792;DHT22;1911;53.768;11.474;2023-06-26T14:13:09;22.50;1.00
3792;DHT22;1911;53.768;11.474;2023-06-26T14:15:37;22.70;1.00
3792;DHT22;1911;53.768;11.474;2023-06-26T14:18:04;22.80;1.00
3792;DHT22;1911;53.768;11.474;2023-06-26T14:20:30;23.00;99.90
3792;DHT22;1911;53.768;11.474;2023-06-26T14:22:58;23.20;99.90
3792;DHT22;1911;53.768;11.474;2023-06-26T14:25:24;23.40;99.90
3792;DHT22;1911;53.768;11.474;2023-06-26T14:27:49;23.40;1.00
3792;DHT22;1911;53.768;11.474;2023-06-26T14:30:15;23.40;1.00
3792;DHT22;1911;53.768;11.474;2023-06-26T14:32:40;23.40;1.00
3792;DHT22;1911;53.768;11.474;2023-06-26T14:35:06;23.30;99.90
3792;DHT22;1911;53.768;11.474;2023-06-26T14:37:32;23.00;99.90
3792;DHT22;1911;53.768;11.474;2023-06-26T14:40:07;22.90;99.90
3792;DHT22;1911;53.768;11.474;2023-06-26T14:42:35;22.80;19.30
3792;DHT22;1911;53.768;11.474;2023-06-26T14:45:01;22.70;1.00
3792;DHT22;1911;53.768;11.474;2023-06-26T14:47:27;22.70;1.00
3792;DHT22;1911;53.768;11.474;2023-06-26T14:49:53;22.70;1.00
3792;DHT22;1911;53.768;11.474;2023-06-26T14:52:18;22.90;1.00
3792;DHT22;1911;53.768;11.474;2023-06-26T14:54:44;23.10;1.00
3792;DHT22;1911;53.768;11.474;2023-06-26T14:57:09;23.20;1.00
3792;DHT22;1911;53.768;11.474;2023-06-26T14:59:36;23.40;3.70
3792;DHT22;1911;53.768;11.474;2023-06-26T15:02:01;23.60;1.00
3792;DHT22;1911;53.768;11.474;2023-06-26T15:04:27;23.60;1.00
3792;DHT22;1911;53.768;11.474;2023-06-26T15:06:53;23.50;1.00
3792;DHT22;1911;53.768;11.474;2023-06-26T15:09:19;23.50;1.00
3792;DHT22;1911;53.768;11.474;2023-06-26T15:11:44;23.40;1.00
3792;DHT22;1911;53.768;11.474;2023-06-26T15:14:10;23.10;1.00
3792;DHT22;1911;53.768;11.474;2023-06-26T15:16:36;22.90;1.00
3792;DHT22;1911;53.768;11.474;2023-06-26T15:19:01;22.90;1.00
3792;DHT22;1911;53.768;11.474;2023-06-26T15:21:27;22.80;1.00
3792;DHT22;1911;53.768;11.474;2023-06-26T15:23:53;22.60;1.00
3792;DHT22;1911;53.768;11.474;2023-06-26T15:26:18;22.60;1.00
3792;DHT22;1911;53.768;11.474;2023-06-26T15:28:44;22.70;1.00
3792;DHT22;1911;53.768;11.474;2023-06-26T15:31:10;22.70;1.00
3792;DHT22;1911;53.768;11.474;2023-06-26T15:33:35;22.90;1.00
3792;DHT22;1911;53.768;11.474;2023-06-26T15:36:01;23.00;1.00
3792;DHT22;1911;53.768;11.474;2023-06-26T15:38:29;23.00;1.00
3792;DHT22;1911;53.768;11.474;2023-06-26T15:40:55;23.20;1.00
3792;DHT22;1911;53.768;11.474;2023-06-26T15:43:21;23.30;1.00
3792;DHT22;1911;53.768;11.474;2023-06-26T15:45:47;23.40;1.00
3792;DHT22;1911;53.768;11.474;2023-06-26T15:48:13;23.40;99.90
3792;DHT22;1911;53.768;11.474;2023-06-26T15:50:38;23.50;99.90
3792;DHT22;1911;53.768;11.474;2023-06-26T15:53:04;23.50;99.90
3792;DHT22;1911;53.768;11.474;2023-06-26T15:55:30;23.60;99.90
3792;DHT22;1911;53.768;11.474;2023-06-26T15:57:56;23.30;99.90
3792;DHT22;1911;53.768;11.474;2023-06-26T16:00:21;23.10;99.90